Time;durP1;ratioP1;P1;durP2;ratioP2;P2;SDS_P1;SDS_P2;PMS_P1;PMS_P2;Temp;Humidity;BMP_temperature;BMP_pressure;BME280_temperature;BME280_humidity;BME280_pressure;Samples;Min_cycle;Max_cycle;Signal;HPM_P1;HPM_P2
2023/05/12 00:00:34;;;;;;;5.55;1.30;;;;;;;13.08;61.11;100122.47;6247821;28;20125;-71
2023/05/12 00:03:35;;;;;;;1.60;1.20;;;;;;;13.08;60.63;100135.56;6277016;28;20049;-70
2023/05/12 00:06:36;;;;;;;3.67;1.60;;;;;;;13.05;61.51;100131.38;6286798;28;20052;-72
2023/05/12 00:09:36;;;;;;;1.25;1.13;;;;;;;13.00;62.16;100133.47;6295641;28;20056;-71
2023/05/12 00:12:37;;;;;;;2.55;1.60;;;;;;;12.92;63.08;100133.16;6295688;28;20052;-72
2023/05/12 00:15:38;;;;;;;4.57;1.50;;;;;;;12.86;61.12;100136.22;6296612;28;20052;-71
2023/05/12 00:18:39;;;;;;;1.52;1.42;;;;;;;12.85;61.93;100132.75;6295498;28;20110;-71
2023/05/12 00:21:40;;;;;;;2.95;1.60;;;;;;;12.83;63.22;100126.78;6296524;28;20041;-71
2023/05/12 00:24:41;;;;;;;2.80;1.30;;;;;;;12.82;62.74;100137.38;6296229;28;20056;-72
2023/05/12 00:27:41;;;;;;;2.65;1.17;;;;;;;12.78;64.40;100130.66;6296140;28;20135;-73
2023/05/12 00:30:42;;;;;;;2.45;1.35;;;;;;;12.73;64.52;100136.22;6294871;28;20076;-70
2023/05/12 00:33:43;;;;;;;1.77;1.30;;;;;;;12.72;63.95;100139.78;6294960;28;20098;-70
2023/05/12 00:36:44;;;;;;;1.35;1.10;;;;;;;12.66;63.58;100132.34;6296160;28;20055;-70
2023/05/12 00:39:44;;;;;;;3.72;1.30;;;;;;;12.64;63.24;100129.84;6288688;28;20049;-71
2023/05/12 00:42:45;;;;;;;1.70;1.35;;;;;;;12.63;63.79;100128.16;6270034;28;20072;-71
2023/05/12 00:45:46;;;;;;;1.50;1.20;;;;;;;12.53;63.43;100124.47;6271173;28;20063;-72
2023/05/12 00:48:47;;;;;;;1.55;1.20;;;;;;;12.53;62.94;100126.28;6270949;28;20138;-71
2023/05/12 00:51:48;;;;;;;1.60;1.50;;;;;;;12.47;62.97;100127.53;6270864;28;20187;-70
2023/05/12 00:54:49;;;;;;;1.40;1.13;;;;;;;12.41;63.13;100117.47;6269788;28;20457;-72
2023/05/12 00:57:50;;;;;;;2.38;1.15;;;;;;;12.33;63.10;100128.44;6269393;28;20083;-71
2023/05/12 01:00:51;;;;;;;1.52;0.93;;;;;;;12.22;62.80;100123.94;6269560;28;20056;-71
2023/05/12 01:03:54;;;;;;;1.52;1.08;;;;;;;12.16;62.82;100126.13;6270444;28;20044;-71
2023/05/12 01:07:04;;;;;;;2.38;1.70;;;;;;;12.15;62.65;100132.28;6270127;28;20495;-71
2023/05/12 01:10:16;;;;;;;0.73;0.73;;;;;;;12.11;62.15;100126.44;6270371;28;20057;-71
2023/05/12 01:13:17;;;;;;;1.73;1.27;;;;;;;12.08;62.50;100118.78;6269483;28;20052;-71
2023/05/12 01:16:22;;;;;;;2.00;1.10;;;;;;;12.01;62.87;100131.44;6269299;28;20056;-71
2023/05/12 01:19:48;;;;;;;1.92;1.25;;;;;;;11.88;62.86;100122.66;6281777;28;20072;-72
2023/05/12 01:22:49;;;;;;;1.50;0.98;;;;;;;11.85;62.83;100126.31;6294922;28;20097;-72
2023/05/12 01:25:51;;;;;;;1.80;1.35;;;;;;;11.73;63.55;100127.13;6295453;28;20107;-71
2023/05/12 01:28:52;;;;;;;;;;;;;;;11.59;63.91;100130.66;6293901;28;20106;-71
2023/05/12 01:31:54;;;;;;;5.65;1.67;;;;;;;11.54;63.14;100121.41;6293699;28;19920;-71
2023/05/12 01:34:54;;;;;;;1.17;1.07;;;;;;;11.46;62.03;100125.34;6293640;28;20056;-70
2023/05/12 01:37:55;;;;;;;1.33;1.20;;;;;;;11.49;61.91;100121.72;6293702;28;20053;-70
2023/05/12 01:40:56;;;;;;;5.43;1.58;;;;;;;11.45;61.72;100118.44;6293438;28;20079;-71
2023/05/12 01:43:57;;;;;;;1.08;0.98;;;;;;;11.39;61.02;100123.22;6293254;28;20056;-70
2023/05/12 01:46:58;;;;;;;2.63;1.00;;;;;;;11.41;60.69;100118.75;6294601;28;20134;-71
2023/05/12 01:49:58;;;;;;;1.70;1.27;;;;;;;11.43;60.37;100116.88;6293111;28;20409;-70
2023/05/12 01:52:59;;;;;;;2.30;1.20;;;;;;;11.39;60.30;100113.63;6293224;28;20053;-70
2023/05/12 01:56:02;;;;;;;1.40;1.30;;;;;;;11.43;59.98;100116.88;6293115;28;20052;-71
2023/05/12 01:59:03;;;;;;;0.90;0.90;;;;;;;11.39;58.97;100111.00;6294271;28;20056;-71
2023/05/12 02:02:04;;;;;;;1.50;1.17;;;;;;;11.43;58.89;100112.47;6294229;28;20555;-70
2023/05/12 02:05:08;;;;;;;1.40;0.90;;;;;;;11.46;59.46;100111.44;6294479;28;20060;-72
2023/05/12 02:08:08;;;;;;;1.45;1.10;;;;;;;11.39;58.38;100105.78;6294284;28;20053;-72
2023/05/12 02:11:09;;;;;;;1.52;1.00;;;;;;;11.47;58.51;100100.06;6292837;28;20045;-72
2023/05/12 02:14:10;;;;;;;3.63;1.50;;;;;;;11.48;58.92;100104.34;6292912;28;20152;-70
2023/05/12 02:17:11;;;;;;;5.35;0.90;;;;;;;11.43;58.58;100109.88;6293984;28;20483;-72
2023/05/12 02:20:12;;;;;;;3.38;1.30;;;;;;;11.44;57.28;100098.47;6293914;28;20052;-72
2023/05/12 02:23:12;;;;;;;1.48;1.10;;;;;;;11.42;57.41;100104.72;6292726;28;20068;-73
2023/05/12 02:26:13;;;;;;;2.28;1.00;;;;;;;11.43;56.68;100098.59;6292648;28;20044;-72
2023/05/12 02:29:14;;;;;;;2.75;1.48;;;;;;;11.44;57.00;100106.31;6292541;28;20052;-71
2023/05/12 02:32:17;;;;;;;1.20;1.10;;;;;;;11.34;57.96;100105.22;6294162;28;20388;-70
2023/05/12 02:35:18;;;;;;;3.20;1.38;;;;;;;11.38;56.51;100098.84;6293791;28;20137;-70
2023/05/12 02:38:19;;;;;;;1.30;0.88;;;;;;;11.37;58.25;100098.97;6292666;28;20048;-71
2023/05/12 02:41:20;;;;;;;1.27;0.85;;;;;;;11.32;57.56;100103.66;6284098;28;20064;-71
2023/05/12 02:44:21;;;;;;;1.20;1.00;;;;;;;11.31;57.70;100105.44;6268647;28;20507;-71
2023/05/12 02:47:22;;;;;;;1.50;1.10;;;;;;;11.28;56.87;100093.41;6253507;28;20160;-72
2023/05/12 02:50:25;;;;;;;1.05;0.95;;;;;;;11.26;56.52;100089.19;6243992;28;20066;-72
2023/05/12 02:53:26;;;;;;;2.15;1.27;;;;;;;11.32;56.81;100099.25;6244069;28;20455;-72
2023/05/12 02:56:27;;;;;;;1.40;0.90;;;;;;;11.22;56.86;100098.16;6258469;28;20515;-72
2023/05/12 02:59:31;;;;;;;0.80;0.80;;;;;;;11.26;57.01;100105.72;6292325;28;20055;-71
2023/05/12 03:02:33;;;;;;;1.25;0.98;;;;;;;11.14;58.03;100111.72;6292881;28;20059;-71
2023/05/12 03:05:33;;;;;;;2.42;1.00;;;;;;;11.15;58.30;100105.53;6292593;28;20052;-71
2023/05/12 03:08:35;;;;;;;1.63;1.20;;;;;;;11.16;57.97;100102.00;6285713;28;20131;-70
2023/05/12 03:11:35;;;;;;;1.77;1.45;;;;;;;11.08;58.65;100110.31;6268311;28;20088;-72
2023/05/12 03:14:38;;;;;;;2.00;1.15;;;;;;;11.03;59.44;100099.31;6267591;28;20562;-72
2023/05/12 03:17:39;;;;;;;1.15;0.98;;;;;;;10.99;59.12;100107.44;6268368;28;20056;-72
2023/05/12 03:20:40;;;;;;;2.17;1.05;;;;;;;10.98;58.76;100111.00;6281681;28;20491;-72
2023/05/12 03:23:41;;;;;;;2.15;1.33;;;;;;;10.95;58.96;100104.16;6291121;28;20095;-72
2023/05/12 03:26:42;;;;;;;1.42;1.10;;;;;;;10.85;59.19;100110.88;6292987;28;20053;-72
2023/05/12 03:29:43;;;;;;;2.15;1.15;;;;;;;10.88;59.63;100111.53;6295083;28;20554;-73
2023/05/12 03:32:45;;;;;;;1.58;1.05;;;;;;;10.86;60.11;100108.19;6292043;28;20053;-72
2023/05/12 03:35:45;;;;;;;1.17;1.10;;;;;;;10.92;60.60;100112.19;6297629;28;20082;-72
2023/05/12 03:38:46;;;;;;;1.42;1.00;;;;;;;10.87;60.90;100115.09;6279678;28;20177;-72
2023/05/12 03:41:47;;;;;;;1.42;1.15;;;;;;;10.85;60.21;100105.66;6280036;28;20132;-72
2023/05/12 03:44:50;;;;;;;1.75;0.98;;;;;;;10.91;60.49;100112.28;6297240;28;20087;-72
2023/05/12 03:47:51;;;;;;;1.63;1.02;;;;;;;10.95;60.18;100113.78;6297423;28;20049;-72
2023/05/12 03:50:52;;;;;;;4.63;1.15;;;;;;;10.98;61.19;100106.59;6273431;28;20052;-73
2023/05/12 03:53:53;;;;;;;1.73;1.33;;;;;;;11.06;60.85;100109.56;6272384;28;20514;-72
2023/05/12 03:56:53;;;;;;;10.95;1.30;;;;;;;11.02;60.56;100110.69;6274141;28;20487;-72
2023/05/12 03:59:54;;;;;;;1.25;0.80;;;;;;;10.99;60.36;100112.66;6296072;28;20052;-73
2023/05/12 04:02:59;;;;;;;1.60;0.95;;;;;;;10.97;60.46;100115.34;6272552;28;20052;-71
2023/05/12 04:06:01;;;;;;;1.63;1.20;;;;;;;11.13;60.75;100119.63;6276661;28;20507;-71
2023/05/12 04:09:02;;;;;;;3.10;1.50;;;;;;;11.22;60.39;100121.66;6270895;28;20414;-72
2023/05/12 04:12:03;;;;;;;2.03;1.15;;;;;;;11.25;59.44;100124.09;6270106;28;20049;-71
2023/05/12 04:15:05;;;;;;;7.43;1.50;;;;;;;11.28;59.55;100129.97;6269068;28;20045;-72
2023/05/12 04:18:06;;;;;;;1.73;1.38;;;;;;;11.28;59.82;100127.34;6264962;28;20052;-71
2023/05/12 04:21:07;;;;;;;1.98;1.20;;;;;;;11.43;60.58;100124.72;6271690;28;20056;-71
2023/05/12 04:24:07;;;;;;;1.80;1.25;;;;;;;11.58;60.21;100135.97;6278529;28;20106;-70
2023/05/12 04:27:08;;;;;;;1.00;0.90;;;;;;;11.47;59.34;100134.03;6296323;28;20049;-71
2023/05/12 04:30:12;;;;;;;0.82;0.73;;;;;;;11.50;60.29;100131.22;6277318;28;20510;-72
2023/05/12 04:33:12;;;;;;;2.70;1.38;;;;;;;11.61;58.91;100125.28;6283166;28;20106;-71
2023/05/12 04:36:13;;;;;;;2.53;1.67;;;;;;;11.70;59.28;100122.09;6275420;28;20061;-71
2023/05/12 04:39:14;;;;;;;2.63;1.40;;;;;;;11.82;59.65;100136.13;6281945;28;20507;-71
2023/05/12 04:42:15;;;;;;;1.60;1.15;;;;;;;11.95;59.34;100133.63;6294859;28;20063;-71
2023/05/12 04:45:18;;;;;;;1.58;1.30;;;;;;;11.89;59.05;100127.84;6272443;28;20049;-71
2023/05/12 04:48:19;;;;;;;2.45;1.50;;;;;;;11.89;58.82;100137.47;6269957;28;20195;-71
2023/05/12 04:51:20;;;;;;;2.60;1.43;;;;;;;11.92;60.19;100136.41;6284844;28;20084;-73
2023/05/12 04:54:21;;;;;;;4.75;1.40;;;;;;;12.09;59.37;100142.22;6274342;28;20484;-73
2023/05/12 04:57:22;;;;;;;9.95;1.38;;;;;;;12.24;58.17;100139.53;6275309;28;20070;-72
2023/05/12 05:00:22;;;;;;;1.23;1.05;;;;;;;12.19;58.90;100142.47;6277880;28;20176;-73
2023/05/12 05:03:23;;;;;;;1.83;1.15;;;;;;;12.35;58.94;100130.97;6270262;28;20450;-73
2023/05/12 05:06:24;;;;;;;4.47;1.67;;;;;;;12.27;57.21;100121.88;6270477;28;20088;-70
2023/05/12 05:09:25;;;;;;;2.58;1.02;;;;;;;12.39;57.72;100133.25;6269466;28;20079;-72
2023/05/12 05:12:25;;;;;;;1.35;1.10;;;;;;;12.44;57.73;100133.81;6279515;28;20094;-72
2023/05/12 05:15:26;;;;;;;1.40;1.30;;;;;;;12.72;58.23;100144.16;6268194;28;20052;-72
2023/05/12 05:18:28;;;;;;;4.40;1.45;;;;;;;12.53;57.13;100134.97;6270215;28;20257;-70
2023/05/12 05:21:31;;;;;;;1.73;1.55;;;;;;;12.61;57.92;100142.28;6270189;28;20051;-71
2023/05/12 05:24:32;;;;;;;3.17;1.27;;;;;;;12.73;57.32;100151.09;6270334;28;20056;-71
2023/05/12 05:27:35;;;;;;;4.63;2.03;;;;;;;12.88;57.65;100157.88;6272863;28;20045;-71
2023/05/12 05:30:36;;;;;;;2.17;1.02;;;;;;;12.69;57.26;100146.06;6295061;28;20049;-71
2023/05/12 05:33:36;;;;;;;2.33;1.50;;;;;;;12.87;57.11;100156.22;6288303;28;20052;-71
2023/05/12 05:36:38;;;;;;;1.90;1.42;;;;;;;12.87;56.97;100158.84;6285375;28;20130;-71
2023/05/12 05:39:39;;;;;;;3.22;1.52;;;;;;;13.02;57.35;100146.47;6268960;28;20135;-72
2023/05/12 05:42:42;;;;;;;1.73;1.40;;;;;;;13.28;58.18;100160.34;6280062;28;20090;-72
2023/05/12 05:45:43;;;;;;;2.58;1.70;;;;;;;13.28;57.24;100161.19;6294443;28;20052;-71
2023/05/12 05:48:44;;;;;;;2.55;1.30;;;;;;;13.31;55.90;100157.53;6293455;28;20102;-72
2023/05/12 05:51:44;;;;;;;1.83;1.30;;;;;;;13.37;56.45;100151.03;6293107;28;20045;-72
2023/05/12 05:54:45;;;;;;;4.97;1.63;;;;;;;13.43;56.58;100161.09;6284630;28;20052;-72
2023/05/12 05:57:46;;;;;;;4.13;1.42;;;;;;;13.46;56.14;100160.84;6283274;28;20060;-72
2023/05/12 06:00:47;;;;;;;1.23;0.88;;;;;;;13.44;56.57;100150.47;6269009;28;20053;-72
2023/05/12 06:03:47;;;;;;;2.53;1.35;;;;;;;13.50;54.82;100162.31;6269309;28;20049;-72
2023/05/12 06:06:48;;;;;;;1.60;1.30;;;;;;;13.41;55.40;100171.66;6270533;28;20051;-72
2023/05/12 06:09:49;;;;;;;6.22;1.50;;;;;;;13.43;55.04;100171.56;6270297;28;20107;-72
2023/05/12 06:12:50;;;;;;;0.90;0.90;;;;;;;13.50;55.13;100168.38;6269085;28;20056;-72
2023/05/12 06:15:53;;;;;;;2.70;1.42;;;;;;;13.61;54.19;100167.63;6268817;28;20048;-72
2023/05/12 06:18:54;;;;;;;1.30;1.15;;;;;;;13.82;55.07;100164.41;6268631;28;20060;-73
2023/05/12 06:21:54;;;;;;;1.20;1.10;;;;;;;14.23;55.08;100171.03;6270120;28;20045;-73
2023/05/12 06:24:58;;;;;;;1.70;1.17;;;;;;;14.50;53.60;100176.81;6269941;28;20063;-72
2023/05/12 06:27:59;;;;;;;2.05;1.45;;;;;;;14.75;53.93;100168.91;6269815;28;20052;-73
2023/05/12 06:30:59;;;;;;;1.40;1.30;;;;;;;14.85;52.14;100181.22;6276008;28;20045;-73
2023/05/12 06:34:01;;;;;;;1.25;1.15;;;;;;;15.03;52.38;100178.97;6267141;28;20567;-73
2023/05/12 06:37:02;;;;;;;2.30;1.38;;;;;;;15.20;53.85;100177.63;6278893;28;20068;-71
2023/05/12 06:40:03;;;;;;;1.50;1.35;;;;;;;15.29;51.18;100176.06;6274898;28;20186;-72
2023/05/12 06:43:06;;;;;;;11.80;1.55;;;;;;;15.46;51.49;100179.97;6293247;28;20075;-71
2023/05/12 06:46:07;;;;;;;3.33;1.38;;;;;;;15.46;51.18;100188.72;6267619;28;20145;-71
2023/05/12 06:49:08;;;;;;;7.00;1.37;;;;;;;15.61;50.57;100188.47;6267576;28;20052;-71
2023/05/12 06:52:09;;;;;;;1.70;1.50;;;;;;;15.64;50.94;100190.84;6264131;28;20617;-71
2023/05/12 06:55:09;;;;;;;1.63;1.30;;;;;;;15.69;50.14;100200.03;6268363;28;20118;-73
2023/05/12 06:58:10;;;;;;;1.67;1.30;;;;;;;15.82;51.22;100189.41;6281080;28;20137;-72
2023/05/12 07:01:11;;;;;;;4.30;1.50;;;;;;;16.11;50.22;100194.09;6288558;28;20110;-72
2023/05/12 07:04:12;;;;;;;2.53;1.50;;;;;;;15.80;50.09;100193.13;6280446;28;20499;-71
2023/05/12 07:07:15;;;;;;;2.85;1.65;;;;;;;15.69;49.17;100201.84;6276700;28;20128;-72
2023/05/12 07:10:15;;;;;;;3.70;2.20;;;;;;;15.82;49.85;100204.34;6273444;28;20048;-72
2023/05/12 07:13:17;;;;;;;2.50;1.60;;;;;;;16.00;49.96;100208.13;6288506;28;20252;-71
2023/05/12 07:16:18;;;;;;;3.38;1.63;;;;;;;16.13;48.23;100207.94;6291303;28;20045;-71
2023/05/12 07:19:19;;;;;;;1.77;1.40;;;;;;;16.23;49.16;100206.25;6272242;28;20053;-72
2023/05/12 07:22:20;;;;;;;2.30;1.40;;;;;;;16.57;48.60;100213.97;6271545;28;20107;-71
2023/05/12 07:25:21;;;;;;;2.60;1.70;;;;;;;16.48;48.75;100207.66;6271100;28;20061;-72
2023/05/12 07:28:22;;;;;;;2.00;1.40;;;;;;;16.51;49.83;100209.19;6267877;28;20052;-71
2023/05/12 07:31:25;;;;;;;2.40;1.35;;;;;;;16.48;48.16;100210.31;6270829;28;20045;-72
2023/05/12 07:34:26;;;;;;;5.40;1.60;;;;;;;16.64;48.99;100214.31;6271197;28;20089;-71
2023/05/12 07:37:29;;;;;;;2.17;1.65;;;;;;;16.72;50.33;100211.88;6272505;28;20103;-72
2023/05/12 07:40:32;;;;;;;3.65;1.50;;;;;;;16.72;50.15;100217.97;6271488;28;20541;-72
2023/05/12 07:43:33;;;;;;;2.60;1.40;;;;;;;17.04;49.56;100216.22;6272836;28;20080;-72
2023/05/12 07:46:36;;;;;;;2.05;1.20;;;;;;;17.30;49.79;100216.63;6271520;28;20049;-72
2023/05/12 07:49:36;;;;;;;2.50;1.35;;;;;;;17.32;49.67;100225.22;6279801;28;20044;-71
2023/05/12 07:52:53;;;;;;;2.13;1.35;;;;;;;17.51;48.57;100227.09;6278191;28;20051;-72
2023/05/12 07:55:54;;;;;;;3.47;1.33;;;;;;;17.10;47.26;100215.69;6287828;28;20244;-72
2023/05/12 07:58:55;;;;;;;1.98;1.42;;;;;;;17.42;47.38;100225.25;6289277;28;20048;-72
2023/05/12 08:01:55;;;;;;;1.80;1.45;;;;;;;17.59;46.74;100227.25;6280698;28;20158;-72
2023/05/12 08:04:56;;;;;;;2.10;1.52;;;;;;;18.10;46.24;100236.84;6294357;28;20411;-72
2023/05/12 08:07:57;;;;;;;3.00;1.42;;;;;;;18.11;45.47;100235.03;6293755;28;20056;-72
2023/05/12 08:10:58;;;;;;;2.15;1.38;;;;;;;18.16;46.57;100234.59;6296654;28;20045;-71
2023/05/12 08:13:59;;;;;;;3.73;1.40;;;;;;;17.94;46.10;100231.25;6297908;28;20502;-71
2023/05/12 08:16:59;;;;;;;1.70;1.17;;;;;;;17.86;45.21;100236.38;6283804;28;20055;-72
2023/05/12 08:20:03;;;;;;;3.38;1.30;;;;;;;17.90;44.50;100237.78;6296280;28;20088;-71
2023/05/12 08:23:04;;;;;;;2.80;1.50;;;;;;;18.16;46.00;100240.75;6296688;28;20080;-73
2023/05/12 08:26:04;;;;;;;2.70;1.40;;;;;;;18.01;45.46;100242.09;6296569;28;20055;-73
2023/05/12 08:29:07;;;;;;;4.63;1.40;;;;;;;18.00;45.46;100246.56;6297778;28;20056;-72
2023/05/12 08:32:08;;;;;;;1.38;1.15;;;;;;;18.17;46.22;100252.13;6295795;28;20105;-72
2023/05/12 08:35:09;;;;;;;2.72;1.73;;;;;;;18.04;45.04;100247.94;6296360;28;20053;-72
2023/05/12 08:38:09;;;;;;;4.00;1.88;;;;;;;17.78;47.15;100241.47;6296913;28;20061;-72
2023/05/12 08:41:21;;;;;;;6.13;2.08;;;;;;;18.17;48.89;100244.22;6296504;28;20040;-71
2023/05/12 08:44:24;;;;;;;;;;;;;;;18.32;47.25;100242.81;6270496;28;20080;-73
2023/05/12 08:47:25;;;;;;;1.50;1.40;;;;;;;18.21;44.96;100242.97;6250414;28;19928;-72
2023/05/12 08:50:27;;;;;;;2.33;1.43;;;;;;;18.28;44.73;100249.34;6279361;28;20091;-72
2023/05/12 08:53:34;;;;;;;1.77;1.50;;;;;;;18.61;44.97;100248.06;6295184;28;20049;-72
2023/05/12 08:56:36;;;;;;;3.22;1.60;;;;;;;18.78;43.79;100249.19;6272247;28;20044;-72
2023/05/12 08:59:38;;;;;;;;;;;;;;;18.75;44.23;100264.47;6270996;28;20084;-72
2023/05/12 09:02:41;;;;;;;2.55;1.73;;;;;;;18.77;45.29;100260.72;6271336;28;19936;-71
2023/05/12 09:05:43;;;;;;;2.00;1.40;;;;;;;18.92;46.18;100264.63;6270468;28;20053;-71
2023/05/12 09:08:44;;;;;;;2.60;1.08;;;;;;;18.84;43.85;100263.66;6273927;28;20176;-71
2023/05/12 09:11:52;;;;;;;2.50;1.70;;;;;;;18.77;45.32;100263.34;6260704;28;20356;-71
2023/05/12 09:15:06;;;;;;;2.20;1.20;;;;;;;18.62;44.24;100268.25;6246090;28;20058;-72
2023/05/12 09:18:07;;;;;;;1.67;1.30;;;;;;;18.72;44.23;100262.97;6245451;28;20859;-72
2023/05/12 09:21:08;;;;;;;1.40;1.30;;;;;;;18.76;44.42;100269.63;6246977;28;20049;-71
2023/05/12 09:24:10;;;;;;;6.85;1.65;;;;;;;18.74;43.79;100271.59;6246798;28;20104;-72
2023/05/12 09:27:11;;;;;;;3.88;1.85;;;;;;;18.76;43.60;100280.22;6246190;28;20075;-71
2023/05/12 09:30:12;;;;;;;1.33;1.23;;;;;;;18.77;42.73;100265.19;6249455;28;20053;-72
2023/05/12 09:33:15;;;;;;;3.67;1.40;;;;;;;18.56;44.57;100262.69;6271543;28;20140;-72
2023/05/12 09:36:21;;;;;;;4.93;1.35;;;;;;;18.78;44.28;100259.75;6270081;28;20063;-72
2023/05/12 09:39:22;;;;;;;2.45;1.35;;;;;;;18.63;46.37;100271.72;6269879;28;20111;-71
2023/05/12 09:42:30;;;;;;;1.60;1.27;;;;;;;18.55;45.31;100276.88;6268727;28;20492;-72
2023/05/12 09:45:37;;;;;;;2.00;1.58;;;;;;;18.33;46.76;100266.44;6270902;28;20045;-71
2023/05/12 09:48:38;;;;;;;1.67;1.45;;;;;;;18.39;45.85;100278.28;6269615;28;20059;-72
2023/05/12 09:51:41;;;;;;;5.88;1.40;;;;;;;18.10;45.42;100278.25;6258103;28;20045;-72
2023/05/12 09:54:42;;;;;;;4.20;1.73;;;;;;;18.19;46.34;100279.22;6261264;28;20419;-72
2023/05/12 09:57:44;;;;;;;4.43;1.40;;;;;;;18.13;46.27;100265.59;6270645;28;20063;-72
2023/05/12 10:00:45;;;;;;;;;;;;;;;18.47;45.88;100270.50;6255848;28;20404;-72
2023/05/12 10:03:51;;;;;;;5.55;1.60;;;;;;;18.35;45.90;100268.97;6245271;28;20363;-72
2023/05/12 10:06:53;;;;;;;3.85;1.80;;;;;;;18.26;47.71;100270.63;6260204;28;20053;-72
2023/05/12 10:09:58;;;;;;;1.80;1.42;;;;;;;18.16;46.91;100268.94;6268168;28;20135;-72
2023/05/12 10:12:59;;;;;;;1.77;1.40;;;;;;;18.36;46.14;100269.78;6269367;28;20052;-71
2023/05/12 10:16:03;;;;;;;1.77;1.50;;;;;;;18.08;45.52;100272.28;6268116;28;20291;-72
2023/05/12 10:19:07;;;;;;;1.50;1.27;;;;;;;18.23;44.73;100275.34;6268483;28;20084;-71
2023/05/12 10:22:14;;;;;;;6.70;1.83;;;;;;;17.89;47.05;100276.53;6268144;28;20511;-71
2023/05/12 10:25:16;;;;;;;2.13;1.55;;;;;;;17.94;46.08;100273.50;6269539;28;20555;-72
2023/05/12 10:28:18;;;;;;;2.75;1.52;;;;;;;17.97;47.80;100275.84;6267741;28;20495;-72
2023/05/12 10:31:20;;;;;;;;;;;;;;;17.94;50.27;100277.94;6269611;28;20557;-72
2023/05/12 10:34:20;;;;;;;2.00;1.30;;;;;;;18.14;50.96;100279.66;6269219;28;20011;-71
2023/05/12 10:37:22;;;;;;;1.30;1.20;;;;;;;18.00;52.46;100280.03;6268238;28;20392;-72
2023/05/12 10:40:25;;;;;;;4.82;1.70;;;;;;;17.95;53.31;100279.59;6273390;28;20049;-72
2023/05/12 10:43:28;;;;;;;4.30;1.63;;;;;;;18.13;54.18;100281.44;6276148;28;20053;-72
2023/05/12 10:46:29;;;;;;;2.15;1.85;;;;;;;17.66;53.03;100283.78;6283768;28;20414;-71
2023/05/12 10:49:40;;;;;;;2.55;1.65;;;;;;;17.59;53.63;100280.03;6273341;28;20045;-72
2023/05/12 10:52:59;;;;;;;2.47;1.42;;;;;;;17.67;58.46;100282.00;6263727;28;20053;-72
2023/05/12 10:56:06;;;;;;;1.20;1.10;;;;;;;17.86;55.19;100278.63;6283865;28;20053;-71
2023/05/12 10:59:16;;;;;;;1.38;1.27;;;;;;;17.76;55.36;100290.91;6291395;28;20457;-72
2023/05/12 11:02:24;;;;;;;2.00;1.15;;;;;;;17.80;55.03;100284.41;6278834;28;20056;-70
2023/05/12 11:05:33;;;;;;;1.52;1.23;;;;;;;17.91;56.50;100287.81;6274201;28;20041;-72
2023/05/12 11:08:36;;;;;;;2.25;1.30;;;;;;;18.04;56.85;100287.56;6273677;28;20052;-73
2023/05/12 11:11:37;;;;;;;2.42;1.50;;;;;;;18.10;57.87;100279.09;6257156;28;20096;-72
2023/05/12 11:14:39;;;;;;;1.52;1.42;;;;;;;17.97;56.49;100285.56;6249187;28;20467;-71
2023/05/12 11:17:42;;;;;;;1.38;1.02;;;;;;;17.97;58.15;100296.13;6281281;28;20078;-72
2023/05/12 11:20:43;;;;;;;1.88;1.35;;;;;;;17.89;60.00;100287.09;6289004;28;20055;-71
2023/05/12 11:23:49;;;;;;;1.92;1.20;;;;;;;18.12;61.02;100294.78;6272197;28;20049;-72
2023/05/12 11:26:52;;;;;;;2.65;1.73;;;;;;;18.02;59.50;100286.84;6273561;28;20092;-72
2023/05/12 11:30:03;;;;;;;2.55;1.70;;;;;;;18.14;58.99;100295.50;6272034;28;20292;-72
2023/05/12 11:33:04;;;;;;;2.95;1.00;;;;;;;18.13;57.39;100283.25;6271869;28;20055;-72
2023/05/12 11:36:05;;;;;;;1.27;1.10;;;;;;;18.17;58.52;100292.56;6268281;28;20044;-73
2023/05/12 11:39:06;;;;;;;1.33;1.10;;;;;;;18.09;62.10;100287.97;6273426;28;20049;-71
2023/05/12 11:42:10;;;;;;;1.25;1.10;;;;;;;18.04;58.97;100286.72;6272690;28;20091;-72
2023/05/12 11:45:36;;;;;;;1.80;1.45;;;;;;;17.94;60.93;100293.78;6272957;28;20049;-72
2023/05/12 11:48:36;;;;;;;3.85;2.45;;;;;;;17.89;63.41;100288.88;6272212;28;20059;-72
2023/05/12 11:51:43;;;;;;;1.50;1.20;;;;;;;17.91;58.91;100287.81;6260902;28;20045;-72
2023/05/12 11:54:57;;;;;;;1.25;1.15;;;;;;;17.92;60.77;100288.63;6279778;28;20056;-73
2023/05/12 11:58:02;;;;;;;5.95;2.08;;;;;;;17.85;63.83;100279.56;6248126;28;20085;-72
2023/05/12 12:01:10;;;;;;;2.13;1.48;;;;;;;17.73;59.64;100284.09;6247921;28;20399;-72
2023/05/12 12:04:12;;;;;;;1.45;1.30;;;;;;;17.73;61.05;100284.94;6280952;28;20072;-71
2023/05/12 12:07:15;;;;;;;1.80;1.40;;;;;;;17.62;62.95;100277.09;6246480;28;20431;-72
2023/05/12 12:10:19;;;;;;;4.18;1.33;;;;;;;17.63;62.59;100286.72;6247567;28;20050;-72
2023/05/12 12:13:25;;;;;;;2.42;1.73;;;;;;;17.44;61.46;100281.34;6247416;28;20450;-72
2023/05/12 12:16:29;;;;;;;1.75;1.40;;;;;;;17.50;62.04;100278.16;6265459;28;20049;-72
2023/05/12 12:19:30;;;;;;;3.03;1.60;;;;;;;17.36;61.42;100275.88;6268618;28;20049;-72
2023/05/12 12:22:34;;;;;;;2.05;1.60;;;;;;;17.58;63.62;100282.78;6288686;28;20619;-72
2023/05/12 12:25:34;;;;;;;3.03;1.85;;;;;;;17.40;62.84;100286.06;6251093;28;20563;-72
2023/05/12 12:28:35;;;;;;;3.33;2.08;;;;;;;17.38;63.55;100280.09;6259597;28;20060;-72
2023/05/12 12:31:36;;;;;;;4.30;1.73;;;;;;;17.50;62.58;100292.22;6271675;28;20048;-72
2023/05/12 12:34:37;;;;;;;2.38;1.75;;;;;;;17.42;66.99;100285.91;6267076;28;20552;-71
2023/05/12 12:37:38;;;;;;;4.15;1.88;;;;;;;17.55;66.06;100280.44;6277159;28;20060;-72
2023/05/12 12:40:39;;;;;;;3.85;2.22;;;;;;;17.51;67.85;100287.78;6295141;28;20079;-72
2023/05/12 12:43:39;;;;;;;2.67;2.10;;;;;;;17.53;66.05;100288.47;6291094;28;20416;-72
2023/05/12 12:46:40;;;;;;;3.30;1.95;;;;;;;17.59;68.87;100287.13;6270007;28;20056;-72
2023/05/12 12:49:41;;;;;;;3.33;1.95;;;;;;;17.53;68.44;100288.47;6261606;28;20049;-73
2023/05/12 12:52:44;;;;;;;1.63;1.25;;;;;;;17.55;65.46;100283.91;6289608;28;20041;-73
2023/05/12 12:55:45;;;;;;;2.58;1.60;;;;;;;17.92;56.23;100280.72;6273809;28;20053;-72
2023/05/12 12:58:46;;;;;;;3.40;1.88;;;;;;;17.99;60.18;100281.81;6272339;28;20061;-72
2023/05/12 13:01:49;;;;;;;1.35;1.20;;;;;;;17.81;56.58;100278.13;6294901;28;20044;-73
2023/05/12 13:04:52;;;;;;;2.83;1.52;;;;;;;17.73;58.72;100276.19;6271759;28;20088;-72
2023/05/12 13:07:54;;;;;;;1.63;1.40;;;;;;;17.83;54.60;100278.88;6264543;28;20056;-72
2023/05/12 13:10:55;;;;;;;3.50;1.10;;;;;;;17.91;53.43;100271.09;6271661;28;20049;-72
2023/05/12 13:13:56;;;;;;;1.27;0.95;;;;;;;17.78;53.17;100270.50;6270426;28;20056;-72
2023/05/12 13:16:58;;;;;;;1.75;1.23;;;;;;;18.26;56.72;100265.34;6270425;28;20057;-73
2023/05/12 13:20:02;;;;;;;1.27;1.17;;;;;;;18.36;53.49;100261.84;6303723;28;20549;-72
2023/05/12 13:23:03;;;;;;;2.15;1.30;;;;;;;18.61;55.72;100269.22;6271723;28;20620;-72
2023/05/12 13:26:04;;;;;;;2.22;1.02;;;;;;;18.60;52.62;100261.44;6270980;28;20156;-72
2023/05/12 13:29:05;;;;;;;1.65;1.35;;;;;;;18.26;53.59;100268.00;6269609;28;20075;-72
2023/05/12 13:32:08;;;;;;;1.25;1.15;;;;;;;18.26;52.83;100264.50;6276432;28;20110;-73
2023/05/12 13:35:09;;;;;;;1.83;1.30;;;;;;;18.12;55.21;100261.28;6272159;28;20135;-72
2023/05/12 13:38:10;;;;;;;1.63;1.10;;;;;;;18.13;55.55;100265.59;6276519;28;20483;-71
2023/05/12 13:41:11;;;;;;;1.63;1.27;;;;;;;17.99;53.48;100268.63;6283068;28;20052;-71
2023/05/12 13:44:11;;;;;;;1.45;1.15;;;;;;;17.89;56.96;100266.00;6294849;28;20111;-72
2023/05/12 13:47:13;;;;;;;1.65;1.25;;;;;;;17.49;56.19;100261.50;6295942;28;20070;-72
2023/05/12 13:50:16;;;;;;;1.45;0.95;;;;;;;17.45;57.39;100275.09;6291984;28;20145;-72
2023/05/12 13:53:17;;;;;;;1.17;0.95;;;;;;;17.02;57.18;100265.59;6271085;28;20426;-72
2023/05/12 13:56:20;;;;;;;1.90;1.52;;;;;;;16.65;58.84;100282.66;6271109;28;20065;-72
2023/05/12 13:59:21;;;;;;;1.33;1.10;;;;;;;16.52;59.32;100280.19;6284810;28;20390;-71
2023/05/12 14:02:21;;;;;;;1.58;1.20;;;;;;;16.48;59.24;100273.50;6294723;28;20105;-71
2023/05/12 14:05:22;;;;;;;3.20;1.42;;;;;;;16.50;61.13;100268.94;6294628;28;20063;-72
2023/05/12 14:08:23;;;;;;;1.38;1.25;;;;;;;16.50;59.10;100266.31;6294484;28;20095;-72